Andersonville, Georgia
Current Conditions -  °F | °C
As of 8:15 AM on Thursday 23 Oct 2014 (Local Time) from KACJ Reporting Station
Clear Clear  
Wind Chill: 40°   Ceiling: Unl
Heat Index: 43°   Visibility: 7mi
Dew Point: 43°   Wind: 5mph
Humidity: 100%   Direction: 50°NE
Pressure: 30.13"   Gusts: NA
Location:  32.2°N, 84.14°W
Report Text: KACJ 231215Z AUTO 05004KT 7SM CLR 06/06 A3013 RMK AO2
Loading
Personal Weather Stations






























Interactive Weather Map
Tropical Storm Tracking
New forecast layout! Learn more

10-Day Weather Forecast

Advertisements
Track Severe Weather on mobile